createdAt,value
2023-01-12T00:00:30.255Z,-8.91
2023-01-12T00:02:58.727Z,-8.88
2023-01-12T00:05:27.239Z,-8.84
2023-01-12T00:07:55.886Z,-8.86
2023-01-12T00:10:25.844Z,-8.82
2023-01-12T00:12:54.266Z,-8.86
2023-01-12T00:15:56.368Z,-8.80
2023-01-12T00:18:24.835Z,-8.84
2023-01-12T00:20:53.155Z,-8.72
2023-01-12T00:23:23.215Z,-8.82
2023-01-12T00:25:54.445Z,-8.76
2023-01-12T00:28:22.898Z,-8.81
2023-01-12T00:30:51.292Z,-8.60
2023-01-12T00:33:20.362Z,-8.90
2023-01-12T00:35:49.767Z,-8.87
2023-01-12T00:38:21.091Z,-8.78
2023-01-12T00:40:49.485Z,-8.79
2023-01-12T00:43:36.732Z,-8.82
2023-01-12T00:46:05.567Z,-8.75
2023-01-12T00:48:34.270Z,-8.62
2023-01-12T00:51:04.618Z,-8.79
2023-01-12T00:53:32.983Z,-8.67
2023-01-12T00:56:02.784Z,-8.75
2023-01-12T00:58:32.731Z,-8.85
2023-01-12T01:01:09.465Z,-8.85
2023-01-12T01:03:38.021Z,-8.81
2023-01-12T01:06:07.941Z,-8.87
2023-01-12T01:08:39.685Z,-8.85
2023-01-12T01:11:09.678Z,-8.80
2023-01-12T01:13:44.004Z,-8.93
2023-01-12T01:16:14.021Z,-8.91
2023-01-12T01:18:43.020Z,-8.90
2023-01-12T01:21:12.870Z,-8.87
2023-01-12T01:23:43.306Z,-8.82
2023-01-12T01:26:13.619Z,-8.90
2023-01-12T01:28:46.181Z,-8.94
2023-01-12T01:31:15.900Z,-8.86
2023-01-12T01:33:48.037Z,-8.83
2023-01-12T01:36:16.843Z,-8.73
2023-01-12T01:38:46.319Z,-8.79
2023-01-12T01:41:20.589Z,-8.89
2023-01-12T01:43:56.919Z,-8.87
2023-01-12T01:46:42.102Z,-8.95
2023-01-12T01:49:27.462Z,-8.97
2023-01-12T01:51:57.970Z,-8.88
2023-01-12T01:54:26.645Z,-8.88
2023-01-12T01:57:00.594Z,-8.87
2023-01-12T01:59:32.734Z,-8.86
2023-01-12T02:02:01.285Z,-8.91
2023-01-12T02:04:29.944Z,-8.82
2023-01-12T02:07:02.102Z,-8.72
2023-01-12T02:09:33.478Z,-8.72
2023-01-12T02:12:19.407Z,-8.74
2023-01-12T02:15:08.163Z,-8.83
2023-01-12T02:17:46.545Z,-8.65
2023-01-12T02:20:40.688Z,-8.65
2023-01-12T02:23:48.638Z,-8.73
2023-01-12T02:26:54.657Z,-8.63
2023-01-12T02:29:59.777Z,-8.77
2023-01-12T02:32:33.293Z,-8.71
2023-01-12T02:35:07.607Z,-8.72
2023-01-12T02:37:38.639Z,-8.66
2023-01-12T02:40:08.776Z,-8.64
2023-01-12T02:42:45.145Z,-8.63
2023-01-12T02:45:27.718Z,-8.55
2023-01-12T02:48:05.708Z,-8.57
2023-01-12T02:50:37.930Z,-8.62
2023-01-12T02:53:10.855Z,-8.59
2023-01-12T02:55:39.367Z,-8.67
2023-01-12T02:58:09.142Z,-8.56
2023-01-12T03:00:40.684Z,-8.64
2023-01-12T03:03:12.464Z,-8.54
2023-01-12T03:05:41.961Z,-8.51
2023-01-12T03:08:12.358Z,-8.55
2023-01-12T03:10:54.852Z,-8.57
2023-01-12T03:13:24.653Z,-8.58
2023-01-12T03:15:55.131Z,-8.66
2023-01-12T03:18:33.292Z,-8.73
2023-01-12T03:21:05.326Z,-8.79
2023-01-12T03:23:42.640Z,-8.75
2023-01-12T03:26:12.519Z,-8.54
2023-01-12T03:28:44.626Z,-8.87
2023-01-12T03:31:15.701Z,-8.68
2023-01-12T03:33:48.093Z,-8.72
2023-01-12T03:36:20.961Z,-8.75
2023-01-12T03:39:01.591Z,-8.71
2023-01-12T03:41:36.071Z,-8.81
2023-01-12T03:44:06.786Z,-8.92
2023-01-12T03:46:38.558Z,-8.64
2023-01-12T03:49:11.268Z,-8.74
2023-01-12T03:51:42.061Z,-8.74
2023-01-12T03:54:14.943Z,-8.71
2023-01-12T03:56:44.895Z,-8.67
2023-01-12T03:59:16.994Z,-8.39
2023-01-12T04:01:45.554Z,-8.52
2023-01-12T04:04:15.379Z,-8.69
2023-01-12T04:06:45.568Z,-8.56
2023-01-12T04:09:14.003Z,-8.54
2023-01-12T04:12:00.061Z,-8.56
2023-01-12T04:14:28.545Z,-8.55
2023-01-12T04:16:57.029Z,-8.38
2023-01-12T04:19:26.747Z,-8.36
2023-01-12T04:22:12.870Z,-8.44
2023-01-12T04:24:41.347Z,-8.63
2023-01-12T04:27:12.651Z,-8.62
2023-01-12T04:29:42.060Z,-8.52
2023-01-12T04:32:10.630Z,-8.56
2023-01-12T04:34:40.428Z,-8.52
2023-01-12T04:37:08.828Z,-8.60
2023-01-12T04:39:37.261Z,-8.65
2023-01-12T04:42:26.377Z,-8.76
2023-01-12T04:44:54.891Z,-8.76
2023-01-12T04:47:25.656Z,-8.73
2023-01-12T04:49:55.429Z,-8.55
2023-01-12T04:52:24.230Z,-8.66
2023-01-12T04:54:52.630Z,-8.63
2023-01-12T04:57:20.991Z,-8.43
2023-01-12T04:59:49.296Z,-8.36
2023-01-12T05:02:17.770Z,-8.49
2023-01-12T05:04:50.245Z,-8.63
2023-01-12T05:07:21.767Z,-8.58
2023-01-12T05:10:07.784Z,-8.64
2023-01-12T05:12:40.342Z,-8.54
2023-01-12T05:15:12.440Z,-8.52
2023-01-12T05:17:40.861Z,-8.57
2023-01-12T05:20:10.627Z,-8.54
2023-01-12T05:22:44.259Z,-8.64
2023-01-12T05:25:14.345Z,-8.60
2023-01-12T05:27:42.716Z,-8.54
2023-01-12T05:30:12.905Z,-8.55
2023-01-12T05:32:42.295Z,-8.48
2023-01-12T05:35:11.257Z,-8.54
2023-01-12T05:37:43.624Z,-8.54
2023-01-12T05:40:12.944Z,-8.50
2023-01-12T05:42:56.033Z,-8.57
2023-01-12T05:45:28.105Z,-8.67
2023-01-12T05:48:02.406Z,-8.74
2023-01-12T05:50:39.354Z,-8.75
2023-01-12T05:53:12.281Z,-8.68
2023-01-12T05:55:43.358Z,-8.76
2023-01-12T05:58:11.787Z,-8.76
2023-01-12T06:00:40.157Z,-8.80
2023-01-12T06:03:11.257Z,-8.69
2023-01-12T06:05:39.735Z,-8.94
2023-01-12T06:08:08.189Z,-9.04
2023-01-12T06:10:41.296Z,-9.11
2023-01-12T06:13:27.970Z,-9.07
2023-01-12T06:16:03.784Z,-9.31
2023-01-12T06:18:35.051Z,-9.33
2023-01-12T06:21:03.781Z,-9.29
2023-01-12T06:23:34.898Z,-9.35
2023-01-12T06:26:09.098Z,-9.33
2023-01-12T06:28:40.634Z,-9.36
2023-01-12T06:31:12.377Z,-9.45
2023-01-12T06:33:40.910Z,-9.38
2023-01-12T06:36:11.415Z,-9.49
2023-01-12T06:38:39.944Z,-9.41
2023-01-12T06:41:31.542Z,-9.37
2023-01-12T06:44:02.313Z,-9.52
2023-01-12T06:46:30.790Z,-9.53
2023-01-12T06:49:04.705Z,-9.50
2023-01-12T06:51:33.120Z,-9.57
2023-01-12T06:54:04.429Z,-9.62
2023-01-12T06:56:34.291Z,-9.52
2023-01-12T06:59:03.582Z,-9.60
2023-01-12T07:01:32.182Z,-9.59
2023-01-12T07:04:00.724Z,-9.68
2023-01-12T07:06:29.517Z,-9.67
2023-01-12T07:08:58.299Z,-9.57
2023-01-12T07:11:26.933Z,-9.63
2023-01-12T07:13:59.357Z,-9.79
2023-01-12T07:16:30.459Z,-9.73
2023-01-12T07:18:58.965Z,-9.75
2023-01-12T07:21:27.352Z,-9.75
2023-01-12T07:23:57.531Z,-9.75
2023-01-12T07:26:25.991Z,-9.82
2023-01-12T07:28:54.416Z,-9.72
2023-01-12T07:31:24.317Z,-9.82
2023-01-12T07:33:55.464Z,-9.60
2023-01-12T07:36:25.803Z,-9.64
2023-01-12T07:38:57.214Z,-9.68
2023-01-12T07:41:46.290Z,-9.69
2023-01-12T07:44:14.667Z,-9.69
2023-01-12T07:46:44.461Z,-9.77
2023-01-12T07:49:12.967Z,-9.70
2023-01-12T07:51:41.383Z,-9.74
2023-01-12T07:54:10.034Z,-9.79
2023-01-12T07:56:38.760Z,-9.72
2023-01-12T07:59:09.050Z,-9.77
2023-01-12T08:01:41.177Z,-9.84
2023-01-12T08:04:14.043Z,-9.78
2023-01-12T08:06:45.975Z,-9.82
2023-01-12T08:09:14.341Z,-9.78
2023-01-12T08:11:43.304Z,-9.80
2023-01-12T08:14:15.841Z,-9.75
2023-01-12T08:16:47.079Z,-9.77
2023-01-12T08:19:22.544Z,-9.93
2023-01-12T08:21:54.452Z,-9.82
2023-01-12T08:24:25.882Z,-9.70
2023-01-12T08:26:55.577Z,-9.72
2023-01-12T08:29:30.725Z,-9.70
2023-01-12T08:32:01.112Z,-9.62
2023-01-12T08:34:39.645Z,-9.45
2023-01-12T08:37:12.620Z,-9.50
2023-01-12T08:39:42.440Z,-9.45
2023-01-12T08:42:11.067Z,-9.44
2023-01-12T08:44:39.631Z,-9.48
2023-01-12T08:47:16.972Z,-9.41
2023-01-12T08:49:49.768Z,-9.44
2023-01-12T08:52:21.518Z,-9.40
2023-01-12T08:54:50.949Z,-9.41
2023-01-12T08:57:20.012Z,-9.21
2023-01-12T08:59:48.601Z,-9.24
2023-01-12T09:02:17.649Z,-9.43
2023-01-12T09:04:47.704Z,-9.37
2023-01-12T09:07:17.274Z,-9.50
2023-01-12T09:09:45.931Z,-9.41
2023-01-12T09:12:14.373Z,-9.48
2023-01-12T09:14:42.808Z,-9.36
2023-01-12T09:17:11.173Z,-9.38
2023-01-12T09:19:39.895Z,-9.30
2023-01-12T09:22:10.713Z,-9.31
2023-01-12T09:24:40.374Z,-9.49
2023-01-12T09:27:11.527Z,-9.48
2023-01-12T09:29:46.242Z,-9.42
2023-01-12T09:32:14.864Z,-9.38
2023-01-12T09:34:48.574Z,-9.40
2023-01-12T09:37:18.438Z,-9.28
2023-01-12T09:39:47.035Z,-9.19
2023-01-12T09:42:37.463Z,-9.18
2023-01-12T09:45:42.331Z,-9.28
2023-01-12T09:48:13.369Z,-9.23
2023-01-12T09:50:49.295Z,-9.09
2023-01-12T09:53:23.987Z,-9.13
2023-01-12T09:55:53.511Z,-9.28
2023-01-12T09:58:36.195Z,-9.27
2023-01-12T10:01:24.237Z,-9.30
2023-01-12T10:03:57.157Z,-9.28
2023-01-12T10:06:25.602Z,-9.30
2023-01-12T10:09:00.043Z,-9.30
2023-01-12T10:11:41.655Z,-9.15
2023-01-12T10:14:19.571Z,-9.12
2023-01-12T10:16:54.793Z,-9.17
2023-01-12T10:19:27.390Z,-9.16
2023-01-12T10:21:56.627Z,-9.12
2023-01-12T10:24:30.041Z,-9.09
2023-01-12T10:27:02.393Z,-9.21
2023-01-12T10:29:32.431Z,-9.11
2023-01-12T10:32:06.565Z,-9.11
2023-01-12T10:34:50.540Z,-8.87
2023-01-12T10:37:19.987Z,-9.02
2023-01-12T10:39:53.851Z,-8.97
2023-01-12T10:42:41.960Z,-9.06
2023-01-12T10:45:17.400Z,-9.08
2023-01-12T10:47:46.831Z,-8.98
2023-01-12T10:50:23.577Z,-9.01
2023-01-12T10:52:58.961Z,-8.92
2023-01-12T10:55:31.983Z,-8.95
2023-01-12T10:58:00.756Z,-9.02
2023-01-12T11:00:32.200Z,-8.88
2023-01-12T11:03:00.620Z,-8.90
2023-01-12T11:05:32.138Z,-8.82
2023-01-12T11:08:00.924Z,-8.86
2023-01-12T11:10:32.303Z,-8.83
2023-01-12T11:13:03.555Z,-8.83
2023-01-12T11:15:39.173Z,-8.76
2023-01-12T11:18:26.340Z,-8.67
2023-01-12T11:20:57.814Z,-8.70
2023-01-12T11:23:32.097Z,-8.83
2023-01-12T11:26:03.822Z,-8.75
2023-01-12T11:28:36.388Z,-8.70
2023-01-12T11:31:09.205Z,-8.72
2023-01-12T11:33:41.237Z,-8.71
2023-01-12T11:36:13.511Z,-8.67
2023-01-12T11:38:43.987Z,-8.55
2023-01-12T11:41:23.000Z,-8.70
2023-01-12T11:43:56.297Z,-8.65
2023-01-12T11:46:29.273Z,-8.63
2023-01-12T11:49:03.713Z,-8.73
2023-01-12T11:51:33.231Z,-8.71
2023-01-12T11:54:01.898Z,-8.73
2023-01-12T11:56:56.876Z,-8.74
2023-01-12T11:59:29.822Z,-8.73
2023-01-12T12:02:03.131Z,-8.77
2023-01-12T12:04:57.043Z,-8.79
2023-01-12T12:07:36.563Z,-8.83
2023-01-12T12:10:27.751Z,-8.83
2023-01-12T12:13:28.309Z,-8.85
2023-01-12T12:16:09.159Z,-8.91
2023-01-12T12:18:51.839Z,-8.96
2023-01-12T12:21:40.399Z,-8.89
2023-01-12T12:24:18.292Z,-8.88
2023-01-12T12:26:54.059Z,-8.95
2023-01-12T12:29:34.225Z,-8.95
2023-01-12T12:32:13.971Z,-8.99
2023-01-12T12:35:00.337Z,-8.94
2023-01-12T12:37:38.296Z,-8.97
2023-01-12T12:40:14.624Z,-9.03
2023-01-12T12:43:10.461Z,-9.00
2023-01-12T12:45:49.660Z,-9.00
2023-01-12T12:48:25.306Z,-8.99
2023-01-12T12:51:02.761Z,-9.00
2023-01-12T12:53:36.672Z,-9.02
2023-01-12T12:56:09.336Z,-9.01
2023-01-12T12:58:46.109Z,-9.07
2023-01-12T13:01:58.523Z,-8.98
2023-01-12T13:05:04.883Z,-8.96
2023-01-12T13:07:37.320Z,-9.08
2023-01-12T13:10:20.256Z,-9.06
2023-01-12T13:13:01.989Z,-9.13
2023-01-12T13:15:36.815Z,-9.08
2023-01-12T13:18:07.527Z,-9.01
2023-01-12T13:20:54.366Z,-9.10
2023-01-12T13:23:53.291Z,-9.06
2023-01-12T13:26:27.246Z,-9.03
2023-01-12T13:29:42.321Z,-9.05
2023-01-12T13:32:52.357Z,-8.92
2023-01-12T13:36:10.504Z,-8.88
2023-01-12T13:38:56.808Z,-8.77
2023-01-12T13:41:45.111Z,-8.87
2023-01-12T13:44:22.484Z,-8.85
2023-01-12T13:46:51.661Z,-8.86
2023-01-12T13:49:31.506Z,-8.89
2023-01-12T13:52:01.870Z,-8.89
2023-01-12T13:54:33.613Z,-8.90
2023-01-12T13:57:04.476Z,-8.87
2023-01-12T13:59:34.983Z,-8.90
2023-01-12T14:02:04.015Z,-8.96
2023-01-12T14:04:58.962Z,-8.91
2023-01-12T14:07:40.960Z,-8.99
2023-01-12T14:10:24.524Z,-8.97
2023-01-12T14:13:09.137Z,-8.98
2023-01-12T14:15:56.686Z,-8.92
2023-01-12T14:18:27.225Z,-8.90
2023-01-12T14:20:57.202Z,-8.88
2023-01-12T14:23:30.033Z,-8.81
2023-01-12T14:26:14.860Z,-8.71
2023-01-12T14:28:44.812Z,-8.75
2023-01-12T14:31:19.540Z,-8.66
2023-01-12T14:33:56.528Z,-8.65
2023-01-12T14:36:27.354Z,-8.56
2023-01-12T14:38:56.543Z,-8.64
2023-01-12T14:41:44.934Z,-8.64
2023-01-12T14:44:36.591Z,-8.60
2023-01-12T14:47:05.207Z,-8.78
2023-01-12T14:49:35.851Z,-8.74
2023-01-12T14:52:21.972Z,-8.84
2023-01-12T14:54:52.332Z,-8.99
2023-01-12T14:57:25.299Z,-8.84
2023-01-12T14:59:54.324Z,-8.82
2023-01-12T15:02:32.698Z,-8.91
2023-01-12T15:05:03.128Z,-9.00
2023-01-12T15:07:35.529Z,-9.01
2023-01-12T15:10:24.282Z,-8.86
2023-01-12T15:12:54.865Z,-8.91
2023-01-12T15:15:27.674Z,-8.83
2023-01-12T15:18:14.594Z,-8.87
2023-01-12T15:21:01.668Z,-8.77
2023-01-12T15:23:50.380Z,-8.79
2023-01-12T15:26:19.131Z,-8.72
2023-01-12T15:28:49.257Z,-8.65
2023-01-12T15:31:20.587Z,-8.68
2023-01-12T15:33:49.268Z,-8.56
2023-01-12T15:36:17.737Z,-8.58
2023-01-12T15:38:48.655Z,-8.46
2023-01-12T15:41:19.065Z,-8.41
2023-01-12T15:43:48.886Z,-8.33
2023-01-12T15:46:20.765Z,-8.28
2023-01-12T15:48:49.284Z,-8.28
2023-01-12T15:51:17.892Z,-8.24
2023-01-12T15:53:46.303Z,-8.28
2023-01-12T15:56:16.458Z,-8.12
2023-01-12T15:58:49.349Z,-8.06
2023-01-12T16:01:18.509Z,-8.06
2023-01-12T16:04:15.064Z,-8.05
2023-01-12T16:06:37.634Z,-8.06
2023-01-12T16:09:06.101Z,-8.08
2023-01-12T16:11:34.599Z,-7.99
2023-01-12T16:14:04.574Z,-7.98
2023-01-12T16:16:32.984Z,-8.06
2023-01-12T16:19:06.090Z,-8.00
2023-01-12T16:21:35.626Z,-7.97
2023-01-12T16:24:04.162Z,-8.00
2023-01-12T16:26:32.597Z,-8.02
2023-01-12T16:29:02.556Z,-8.07
2023-01-12T16:31:33.686Z,-7.96
2023-01-12T16:34:02.194Z,-7.94
2023-01-12T16:36:30.600Z,-7.97
2023-01-12T16:38:59.469Z,-7.91
2023-01-12T16:41:27.949Z,-7.91
2023-01-12T16:43:59.543Z,-7.96
2023-01-12T16:46:28.034Z,-8.01
2023-01-12T16:48:59.120Z,-7.92
2023-01-12T16:51:27.567Z,-7.99
2023-01-12T16:53:59.440Z,-7.94
2023-01-12T16:56:30.450Z,-7.92
2023-01-12T16:58:59.114Z,-7.91
2023-01-12T17:01:29.564Z,-7.93
2023-01-12T17:03:59.498Z,-7.94
2023-01-12T17:06:32.294Z,-7.96
2023-01-12T17:09:02.543Z,-7.92
2023-01-12T17:11:35.315Z,-7.99
2023-01-12T17:14:23.130Z,-7.86
2023-01-12T17:16:52.512Z,-7.83
2023-01-12T17:19:28.997Z,-7.96
2023-01-12T17:21:58.427Z,-7.78
2023-01-12T17:24:27.614Z,-7.94
2023-01-12T17:26:59.376Z,-7.80
2023-01-12T17:29:28.617Z,-7.85
2023-01-12T17:32:07.950Z,-7.80
2023-01-12T17:34:39.513Z,-7.70
2023-01-12T17:37:08.975Z,-7.73
2023-01-12T17:39:40.143Z,-7.73
2023-01-12T17:42:26.190Z,-7.72
2023-01-12T17:44:57.478Z,-7.82
2023-01-12T17:47:28.749Z,-7.65
2023-01-12T17:49:58.834Z,-7.77
2023-01-12T17:52:28.548Z,-7.69
2023-01-12T17:54:57.052Z,-7.71
2023-01-12T17:57:26.413Z,-7.61
2023-01-12T17:59:56.678Z,-7.77
2023-01-12T18:02:27.952Z,-7.81
2023-01-12T18:04:59.452Z,-7.80
2023-01-12T18:07:32.034Z,-7.81
2023-01-12T18:10:00.568Z,-7.71
2023-01-12T18:12:33.036Z,-7.83
2023-01-12T18:15:01.537Z,-7.76
2023-01-12T18:17:32.968Z,-7.81
2023-01-12T18:20:01.547Z,-7.82
2023-01-12T18:22:33.094Z,-7.65
2023-01-12T18:25:01.656Z,-7.68
2023-01-12T18:27:30.268Z,-7.65
2023-01-12T18:30:01.054Z,-7.72
2023-01-12T18:32:29.698Z,-7.62
2023-01-12T18:34:58.784Z,-7.64
2023-01-12T18:37:27.292Z,-7.74
2023-01-12T18:39:57.171Z,-7.83
2023-01-12T18:42:44.904Z,-7.74
2023-01-12T18:45:16.286Z,-7.74
2023-01-12T18:48:04.549Z,-7.61
2023-01-12T18:50:52.719Z,-7.67
2023-01-12T18:53:25.440Z,-7.62
2023-01-12T18:55:58.794Z,-7.67
2023-01-12T18:58:29.115Z,-7.67
2023-01-12T19:00:58.420Z,-7.68
2023-01-12T19:03:27.059Z,-7.67
2023-01-12T19:06:00.189Z,-7.59
2023-01-12T19:08:55.572Z,-7.47
2023-01-12T19:11:25.627Z,-7.50
2023-01-12T19:14:22.784Z,-7.59
2023-01-12T19:17:08.858Z,-7.59
2023-01-12T19:19:37.378Z,-7.59
2023-01-12T19:22:23.272Z,-7.58
2023-01-12T19:25:09.621Z,-7.42
2023-01-12T19:27:56.878Z,-7.49
2023-01-12T19:30:25.450Z,-7.50
2023-01-12T19:32:54.306Z,-7.43
2023-01-12T19:35:23.033Z,-7.48
2023-01-12T19:38:04.917Z,-7.44
2023-01-12T19:40:36.621Z,-7.44
2023-01-12T19:43:19.425Z,-7.47
2023-01-12T19:45:50.067Z,-7.52
2023-01-12T19:48:20.044Z,-7.44
2023-01-12T19:50:48.984Z,-7.46
2023-01-12T19:53:20.624Z,-7.43
2023-01-12T19:55:53.180Z,-7.38
2023-01-12T19:58:23.426Z,-7.27
2023-01-12T20:00:52.269Z,-7.34
2023-01-12T20:03:23.108Z,-7.29
2023-01-12T20:05:53.056Z,-7.50
2023-01-12T20:08:22.881Z,-7.38
2023-01-12T20:10:56.986Z,-7.43
2023-01-12T20:13:32.032Z,-7.47
2023-01-12T20:16:01.511Z,-7.42
2023-01-12T20:18:30.071Z,-7.44
2023-01-12T20:21:00.589Z,-7.53
2023-01-12T20:23:31.926Z,-7.51
2023-01-12T20:26:00.607Z,-7.53
2023-01-12T20:28:30.549Z,-7.42
2023-01-12T20:30:59.467Z,-7.35
2023-01-12T20:33:28.524Z,-7.42
2023-01-12T20:35:58.433Z,-7.38
2023-01-12T20:38:27.301Z,-7.33
2023-01-12T20:40:55.968Z,-7.30
2023-01-12T20:43:24.446Z,-7.44
2023-01-12T20:45:54.330Z,-7.42
2023-01-12T20:48:30.084Z,-7.43
2023-01-12T20:50:58.808Z,-7.45
2023-01-12T20:53:31.542Z,-7.40
2023-01-12T20:56:00.274Z,-7.47
2023-01-12T20:58:28.725Z,-7.41
2023-01-12T21:00:58.677Z,-7.41
2023-01-12T21:03:32.238Z,-7.41
2023-01-12T21:06:01.241Z,-7.37
2023-01-12T21:08:31.629Z,-7.51
2023-01-12T21:11:02.333Z,-7.35
2023-01-12T21:13:30.769Z,-7.42
2023-01-12T21:16:02.819Z,-7.44
2023-01-12T21:18:31.799Z,-7.40
2023-01-12T21:21:00.301Z,-7.35
2023-01-12T21:23:29.172Z,-7.40
2023-01-12T21:26:00.696Z,-7.51
2023-01-12T21:28:30.424Z,-7.35
2023-01-12T21:31:03.110Z,-7.28
2023-01-12T21:33:32.113Z,-7.37
2023-01-12T21:36:04.933Z,-7.40
2023-01-12T21:38:33.342Z,-7.32
2023-01-12T21:41:05.912Z,-7.23
2023-01-12T21:43:36.197Z,-7.30
2023-01-12T21:46:07.741Z,-7.27
2023-01-12T21:48:38.996Z,-7.34
2023-01-12T21:51:09.018Z,-7.31
2023-01-12T21:53:37.614Z,-7.18
2023-01-12T21:56:12.625Z,-7.28
2023-01-12T21:58:42.410Z,-7.34
2023-01-12T22:01:14.305Z,-7.21
2023-01-12T22:03:45.267Z,-7.25
2023-01-12T22:06:14.359Z,-7.25
2023-01-12T22:08:48.103Z,-7.16
2023-01-12T22:11:18.423Z,-7.28
2023-01-12T22:13:46.992Z,-7.22
2023-01-12T22:16:17.592Z,-7.07
2023-01-12T22:18:49.176Z,-7.25
2023-01-12T22:21:18.791Z,-7.22
2023-01-12T22:23:47.489Z,-7.17
2023-01-12T22:26:16.873Z,-7.21
2023-01-12T22:28:47.017Z,-7.08
2023-01-12T22:31:18.550Z,-7.12
2023-01-12T22:33:47.675Z,-7.02
2023-01-12T22:36:16.303Z,-7.08
2023-01-12T22:38:44.692Z,-7.18
2023-01-12T22:41:16.652Z,-6.97
2023-01-12T22:43:45.117Z,-7.00
2023-01-12T22:46:17.000Z,-7.04
2023-01-12T22:48:51.499Z,-7.13
2023-01-12T22:51:21.517Z,-7.16
2023-01-12T22:53:50.154Z,-7.14
2023-01-12T22:56:18.732Z,-6.98
2023-01-12T22:58:47.884Z,-7.07
2023-01-12T23:01:17.437Z,-7.05
2023-01-12T23:03:50.148Z,-7.05
2023-01-12T23:06:18.999Z,-7.11
2023-01-12T23:08:50.955Z,-7.09
2023-01-12T23:11:21.546Z,-7.01
2023-01-12T23:13:50.333Z,-7.04
2023-01-12T23:16:19.862Z,-6.93
2023-01-12T23:18:51.706Z,-6.84
2023-01-12T23:21:24.891Z,-6.97
2023-01-12T23:23:56.917Z,-6.94
2023-01-12T23:26:27.380Z,-6.98
2023-01-12T23:28:59.467Z,-6.89
2023-01-12T23:31:30.451Z,-6.88
2023-01-12T23:34:00.534Z,-6.86
2023-01-12T23:36:30.273Z,-6.88
2023-01-12T23:39:00.225Z,-6.91
2023-01-12T23:41:30.242Z,-6.82
2023-01-12T23:44:00.538Z,-6.90
2023-01-12T23:46:30.316Z,-6.96
2023-01-12T23:49:00.910Z,-6.87
2023-01-12T23:51:32.780Z,-6.89
2023-01-12T23:54:05.294Z,-6.70
2023-01-12T23:56:34.789Z,-6.62
2023-01-12T23:59:03.355Z,-6.83
